Time;durP1;ratioP1;P1;durP2;ratioP2;P2;SDS_P1;SDS_P2;PMS_P1;PMS_P2;Temp;Humidity;BMP_temperature;BMP_pressure;BME280_temperature;BME280_humidity;BME280_pressure;Samples;Min_cycle;Max_cycle;Signal;HPM_P1;HPM_P2
2022/04/06 00:00:19;;;;;;;;;5.00;2.00;;;;;12.59;53.92;100697.19;5040302;28;45392;-74
2022/04/06 00:02:46;;;;;;;;;2.75;1.75;;;;;12.58;53.76;100695.47;5040268;28;45485;-75
2022/04/06 00:05:11;;;;;;;;;2.75;2.00;;;;;12.59;53.54;100700.69;5042060;28;46160;-74
2022/04/06 00:07:38;;;;;;;;;2.00;1.00;;;;;12.55;53.15;100679.69;5040807;28;45470;-74
2022/04/06 00:10:05;;;;;;;;;2.00;2.00;;;;;12.40;53.04;100657.03;5042048;28;45249;-74
2022/04/06 00:12:31;;;;;;;;;2.00;2.00;;;;;12.52;52.67;100691.09;5033225;28;45507;-74
2022/04/06 00:14:57;;;;;;;;;3.00;2.00;;;;;12.45;52.70;100677.13;5021747;28;46122;-73
2022/04/06 00:17:22;;;;;;;;;3.00;1.00;;;;;12.28;52.35;100652.75;5017884;28;45431;-74
2022/04/06 00:19:48;;;;;;;;;2.25;2.00;;;;;12.35;51.99;100671.97;5017537;28;45465;-74
2022/04/06 00:22:13;;;;;;;;;2.00;1.25;;;;;12.06;52.63;100625.75;5017779;28;45522;-74
2022/04/06 00:24:39;;;;;;;;;1.00;1.00;;;;;12.38;51.80;100678.06;5018288;28;45502;-74
2022/04/06 00:27:04;;;;;;;;;4.25;1.25;;;;;12.34;51.98;100684.22;5028094;28;45402;-74
2022/04/06 00:29:30;;;;;;;;;1.25;1.00;;;;;12.33;52.27;100674.59;5039972;28;45389;-72
2022/04/06 00:31:56;;;;;;;;;1.00;1.00;;;;;12.34;52.39;100675.47;5038614;28;45470;-73
2022/04/06 00:35:28;;;;;;;;;2.00;0.00;;;;;12.13;52.18;100637.97;5040683;28;45527;-74
2022/04/06 00:37:08;;;;;;;;;2.25;1.75;;;;;12.00;52.31;100615.28;5041685;28;45431;-74
2022/04/06 00:39:33;;;;;;;;;2.00;1.00;;;;;11.96;52.37;100603.03;5056892;28;45215;-73
2022/04/06 00:41:59;;;;;;;;;2.00;0.75;;;;;12.31;51.93;100652.72;5057126;28;45346;-73
2022/04/06 00:44:28;;;;;;;;;1.00;1.00;;;;;12.31;52.50;100652.72;5056137;28;46426;-73
2022/04/06 00:46:54;;;;;;;;;2.50;0.00;;;;;12.28;52.15;100652.75;5055323;28;45474;-74
2022/04/06 00:49:20;;;;;;;;;1.00;1.00;;;;;12.19;52.19;100626.53;5072669;28;45343;-73
2022/04/06 00:51:47;;;;;;;;;3.00;1.00;;;;;12.30;52.29;100651.84;5057711;28;45464;-75
2022/04/06 00:54:17;;;;;;;;;0.25;0.25;;;;;12.29;51.95;100644.88;5058235;28;45345;-74
2022/04/06 00:56:44;;;;;;;;;1.50;1.25;;;;;12.21;52.73;100635.28;5057223;28;45354;-73
2022/04/06 00:59:10;;;;;;;;;1.25;1.00;;;;;12.14;53.08;100623.94;5056881;28;45570;-74
2022/04/06 01:01:36;;;;;;;;;1.75;1.00;;;;;11.86;52.90;100579.47;5056799;28;45445;-74
2022/04/06 01:04:03;;;;;;;;;2.25;1.00;;;;;12.07;52.87;100624.84;5056407;28;45468;-74
2022/04/06 01:06:29;;;;;;;;;1.00;0.00;;;;;11.88;53.46;100584.72;5056498;28;45336;-74
2022/04/06 01:08:55;;;;;;;;;2.00;1.00;;;;;11.91;53.37;100597.81;5038800;28;45402;-73
2022/04/06 01:11:20;;;;;;;;;1.00;0.75;;;;;12.15;53.27;100633.59;5038395;28;45366;-74
2022/04/06 01:13:47;;;;;;;;;1.00;1.00;;;;;12.10;53.30;100624.84;5036395;28;46067;-73
2022/04/06 01:16:13;;;;;;;;;0.50;0.50;;;;;12.04;53.51;100612.63;5020993;28;45559;-74
2022/04/06 01:18:40;;;;;;;;;1.75;1.75;;;;;12.02;53.60;100600.41;5020105;28;45329;-74
2022/04/06 01:21:07;;;;;;;;;3.25;1.00;;;;;12.00;54.02;100587.25;5027810;28;45489;-73
2022/04/06 01:23:32;;;;;;;;;1.00;1.00;;;;;11.93;53.71;100587.31;5039498;28;45506;-74
2022/04/06 01:25:58;;;;;;;;;1.25;1.25;;;;;11.92;53.96;100585.59;5039806;28;45456;-74
2022/04/06 01:28:24;;;;;;;;;4.50;1.00;;;;;12.09;54.08;100615.22;5044179;28;45488;-73
2022/04/06 01:30:50;;;;;;;;;2.00;2.00;;;;;11.89;53.75;100589.09;5060148;28;45327;-75
2022/04/06 01:33:16;;;;;;;;;1.00;1.00;;;;;12.05;54.19;100613.50;5060366;28;46123;-75
2022/04/06 01:35:42;;;;;;;;;1.00;1.00;;;;;11.90;54.07;100590.84;5036099;28;45535;-74
2022/04/06 01:38:09;;;;;;;;;1.00;1.00;;;;;12.03;54.17;100618.78;5019913;28;45364;-73
2022/04/06 01:40:37;;;;;;;;;1.50;1.00;;;;;11.96;54.46;100609.19;5026292;28;45534;-73
2022/04/06 01:43:03;;;;;;;;;0.75;0.75;;;;;11.90;54.02;100598.72;5038889;28;46263;-74
2022/04/06 01:45:29;;;;;;;;;0.00;0.00;;;;;11.84;54.27;100591.72;5038885;28;46010;-73
2022/04/06 01:47:54;;;;;;;;;1.75;1.00;;;;;11.82;54.37;100601.34;5038681;28;45466;-73
2022/04/06 01:53:05;;;;;;;;;1.50;1.00;;;;;11.88;53.91;100609.22;5039109;28;45775;-75
2022/04/06 01:55:30;;;;;;;;;2.00;0.00;;;;;11.85;54.27;100601.31;5052382;28;45730;-74
2022/04/06 01:57:56;;;;;;;;;3.75;1.00;;;;;11.87;54.31;100607.47;5053481;28;45419;-73
2022/04/06 02:00:22;;;;;;;;;0.75;0.75;;;;;11.41;54.66;100526.38;5028362;28;45542;-75
2022/04/06 02:02:50;;;;;;;;;1.00;1.00;;;;;11.84;54.34;100594.34;5039440;28;45351;-74
2022/04/06 02:05:17;;;;;;;;;2.50;1.00;;;;;11.76;54.26;100588.25;5058850;28;45464;-73
2022/04/06 02:07:43;;;;;;;;;1.00;1.00;;;;;11.79;54.44;100598.75;5052504;28;45432;-73
2022/04/06 02:10:10;;;;;;;;;1.25;1.00;;;;;11.75;54.51;100593.53;5019660;28;45450;-74
2022/04/06 02:12:37;;;;;;;;;0.25;0.00;;;;;11.73;54.51;100597.91;5018943;28;45562;-74
2022/04/06 02:15:04;;;;;;;;;0.50;0.50;;;;;11.72;54.78;100596.16;5019254;28;45396;-74
2022/04/06 02:17:30;;;;;;;;;2.00;0.50;;;;;11.67;54.83;100591.81;5034113;28;45356;-74
2022/04/06 02:19:56;;;;;;;;;0.00;0.00;;;;;11.57;54.85;100574.34;5064973;27;46608;-74
2022/04/06 02:22:22;;;;;;;;;1.00;0.75;;;;;11.51;54.39;100577.03;5051898;28;46913;-72
2022/04/06 02:24:48;;;;;;;;;1.25;1.00;;;;;11.39;54.92;100551.72;5018920;28;45300;-72
2022/04/06 02:27:14;;;;;;;;;1.25;1.25;;;;;11.31;54.60;100529.03;5019415;28;45196;-73
2022/04/06 02:29:43;;;;;;;;;1.00;1.00;;;;;11.46;54.92;100555.19;5052212;28;45355;-73
2022/04/06 02:32:10;;;;;;;;;0.75;0.75;;;;;11.63;55.09;100586.59;5047551;28;47723;-73
2022/04/06 02:34:36;;;;;;;;;0.00;0.00;;;;;11.56;54.73;100571.75;5035459;28;45528;-73
2022/04/06 02:37:02;;;;;;;;;4.00;1.00;;;;;11.63;54.83;100584.81;5038030;28;45508;-73
2022/04/06 02:39:28;;;;;;;;;1.00;1.00;;;;;11.52;54.70;100554.28;5035671;28;45334;-74
2022/04/06 02:41:54;;;;;;;;;2.50;1.00;;;;;11.56;54.79;100561.25;5037503;28;46322;-74
2022/04/06 02:44:19;;;;;;;;;1.00;1.00;;;;;11.62;54.36;100564.69;5038831;28;45563;-73
2022/04/06 02:46:47;;;;;;;;;0.00;0.00;;;;;11.56;54.33;100550.78;5037698;28;45456;-73
2022/04/06 02:49:14;;;;;;;;;2.00;0.00;;;;;11.60;54.48;100562.97;5070381;28;45321;-73
2022/04/06 02:51:40;;;;;;;;;0.00;0.00;;;;;11.59;54.16;100559.47;5021210;28;46165;-73
2022/04/06 02:54:06;;;;;;;;;0.00;0.00;;;;;11.70;54.58;100569.03;5035178;28;45454;-73
2022/04/06 02:56:32;;;;;;;;;2.00;0.25;;;;;11.73;54.11;100561.19;5024295;28;45493;-74
2022/04/06 02:58:58;;;;;;;;;0.00;0.00;;;;;11.73;54.31;100558.56;5038490;28;45406;-73
2022/04/06 03:01:24;;;;;;;;;0.50;0.50;;;;;11.51;54.14;100521.03;5038129;28;46453;-73
2022/04/06 03:03:50;;;;;;;;;1.00;1.00;;;;;11.65;53.77;100538.47;5053844;28;45362;-73
2022/04/06 03:06:19;;;;;;;;;0.00;0.00;;;;;11.51;54.37;100507.94;5040003;28;45448;-73
2022/04/06 03:08:45;;;;;;;;;2.00;0.00;;;;;11.84;53.96;100560.22;5045048;28;45950;-74
2022/04/06 03:11:11;;;;;;;;;1.00;1.00;;;;;11.70;53.96;100529.69;5037461;28;45628;-73
2022/04/06 03:13:36;;;;;;;;;0.00;0.00;;;;;11.79;53.94;100540.13;5034672;28;45534;-74
2022/04/06 03:16:02;;;;;;;;;0.00;0.00;;;;;11.84;53.93;100552.38;5030703;28;45502;-74
2022/04/06 03:18:28;;;;;;;;;1.50;1.00;;;;;11.84;53.79;100549.75;5037574;28;45518;-72
2022/04/06 03:20:53;;;;;;;;;0.00;0.00;;;;;11.86;54.11;100555.84;5038010;28;46639;-73
2022/04/06 03:23:19;;;;;;;;;1.25;0.00;;;;;11.88;54.36;100538.34;5032468;28;45383;-72
2022/04/06 03:25:45;;;;;;;;;1.00;1.00;;;;;11.81;54.19;100523.50;5017983;28;45482;-73
2022/04/06 03:28:11;;;;;;;;;2.00;1.00;;;;;11.89;54.07;100531.38;5018114;28;45841;-74
2022/04/06 03:30:37;;;;;;;;;0.00;0.00;;;;;11.78;53.67;100517.41;5049552;28;46375;-73
2022/04/06 03:33:03;;;;;;;;;0.00;0.00;;;;;11.85;54.10;100533.09;5017899;28;45397;-74
2022/04/06 03:35:29;;;;;;;;;0.50;0.00;;;;;11.75;53.87;100512.19;5049368;28;45350;-72
2022/04/06 03:37:55;;;;;;;;;0.00;0.00;;;;;11.86;54.25;100532.22;5030203;28;45730;-72
2022/04/06 03:40:21;;;;;;;;;0.25;0.25;;;;;11.75;54.10;100505.19;5018306;28;45405;-72
2022/04/06 03:42:46;;;;;;;;;0.00;0.00;;;;;11.83;53.78;100518.25;5017141;28;45434;-74
2022/04/06 03:45:18;;;;;;;;;0.00;0.00;;;;;11.58;53.78;100480.78;5023329;28;46876;-73
2022/04/06 03:47:44;;;;;;;;;0.00;0.00;;;;;11.79;53.88;100521.75;5046444;28;45401;-72
2022/04/06 03:50:19;;;;;;;;;0.00;0.00;;;;;11.33;53.93;100443.38;5031124;28;46188;-73
2022/04/06 03:52:45;;;;;;;;;0.00;0.00;;;;;11.79;53.94;100506.03;5058212;28;45346;-73
2022/04/06 03:55:12;;;;;;;;;0.75;0.00;;;;;11.89;54.72;100523.50;5034471;28;45402;-73
2022/04/06 03:57:39;;;;;;;;;2.00;0.00;;;;;11.39;54.17;100425.84;5017725;28;45339;-73
2022/04/06 04:00:08;;;;;;;;;2.00;0.00;;;;;11.90;54.11;100508.63;5017109;28;45420;-72
2022/04/06 04:02:33;;;;;;;;;0.00;0.00;;;;;11.82;53.86;100501.63;5028581;28;45453;-72
2022/04/06 04:04:59;;;;;;;;;1.75;0.00;;;;;11.87;54.16;100509.50;5036466;28;45418;-73
2022/04/06 04:07:24;;;;;;;;;0.25;0.25;;;;;11.87;53.64;100513.00;5037306;28;45406;-73
2022/04/06 04:09:51;;;;;;;;;0.50;0.50;;;;;11.68;54.03;100483.34;5037051;28;45442;-73
2022/04/06 04:12:20;;;;;;;;;0.00;0.00;;;;;11.86;54.06;100513.88;5037122;28;45297;-73
2022/04/06 04:14:46;;;;;;;;;0.00;0.00;;;;;11.81;54.14;100507.75;5036843;28;45457;-73
2022/04/06 04:17:11;;;;;;;;;0.50;0.50;;;;;11.53;53.95;100458.97;5036500;28;45498;-73
2022/04/06 04:19:38;;;;;;;;;0.00;0.00;;;;;11.79;54.12;100506.03;5026946;28;45560;-73
2022/04/06 04:22:05;;;;;;;;;0.50;0.00;;;;;11.68;54.24;100493.84;5048896;28;45331;-73
2022/04/06 04:24:31;;;;;;;;;1.00;0.00;;;;;11.66;54.64;100500.00;5017209;28;45224;-74
2022/04/06 04:27:03;;;;;;;;;1.75;0.00;;;;;11.49;55.05;100476.50;5017568;28;45411;-73
2022/04/06 04:29:28;;;;;;;;;0.00;0.00;;;;;11.64;55.07;100514.88;5049907;28;46654;-73
2022/04/06 04:31:54;;;;;;;;;0.00;0.00;;;;;11.40;55.01;100476.53;5018068;28;45474;-75
2022/04/06 04:34:20;;;;;;;;;1.00;1.00;;;;;11.57;55.13;100510.53;5060734;27;45405;-73
2022/04/06 04:36:45;;;;;;;;;0.00;0.00;;;;;11.47;55.40;100491.34;5045532;28;45509;-72
2022/04/06 04:39:11;;;;;;;;;1.00;0.50;;;;;11.52;55.54;100493.97;5040651;28;47997;-73
2022/04/06 04:41:36;;;;;;;;;1.00;1.00;;;;;11.57;55.50;100492.19;5035998;28;45505;-73
2022/04/06 04:44:02;;;;;;;;;1.00;1.00;;;;;11.59;55.74;100500.91;5035277;28;45441;-73
2022/04/06 04:46:28;;;;;;;;;1.00;1.00;;;;;11.58;55.43;100486.94;5036389;28;45615;-73
2022/04/06 04:48:57;;;;;;;;;0.50;0.50;;;;;11.44;55.45;100459.91;5036247;28;45399;-72
2022/04/06 04:51:26;;;;;;;;;1.00;1.00;;;;;11.56;55.90;100480.81;5036219;28;45526;-73
2022/04/06 04:53:54;;;;;;;;;3.00;0.00;;;;;11.56;55.70;100477.34;5032222;28;45347;-72
2022/04/06 04:56:32;;;;;;;;;0.00;0.00;;;;;11.56;55.51;100482.56;5034257;28;45695;-73
2022/04/06 04:59:05;;;;;;;;;0.50;0.50;;;;;11.56;55.51;100479.94;5036447;28;46010;-73
2022/04/06 05:01:43;;;;;;;;;1.25;1.00;;;;;11.55;55.74;100465.06;5034928;28;45469;-73
2022/04/06 05:04:09;;;;;;;;;1.00;0.00;;;;;11.57;55.13;100482.53;5036457;28;45485;-73
2022/04/06 05:06:38;;;;;;;;;1.00;0.25;;;;;11.57;55.05;100482.53;5036308;28;45334;-73
2022/04/06 05:09:16;;;;;;;;;0.75;0.75;;;;;11.28;55.46;100424.19;5039632;28;46053;-71
2022/04/06 05:11:42;;;;;;;;;1.00;1.00;;;;;11.01;55.31;100392.88;5049794;28;45445;-73
2022/04/06 05:14:08;;;;;;;;;3.00;1.50;;;;;11.37;55.89;100466.06;5036693;28;45492;-73
2022/04/06 05:16:33;;;;;;;;;1.00;1.00;;;;;11.29;55.83;100460.84;5024071;28;45472;-73
2022/04/06 05:19:01;;;;;;;;;2.25;1.00;;;;;11.36;55.73;100462.56;5048768;28;45556;-73
2022/04/06 05:21:26;;;;;;;;;3.50;3.25;;;;;11.42;55.82;100464.28;5037202;28;45580;-74
2022/04/06 05:23:52;;;;;;;;;2.50;2.00;;;;;11.45;55.96;100470.38;5056346;28;45393;-74
2022/04/06 05:26:17;;;;;;;;;4.00;2.75;;;;;11.45;55.56;100462.50;5055585;28;45379;-74
2022/04/06 05:28:43;;;;;;;;;5.00;2.50;;;;;11.46;55.83;100458.16;5056238;28;45408;-74
2022/04/06 05:31:08;;;;;;;;;3.25;1.00;;;;;11.29;55.90;100426.75;5056212;28;45196;-73
2022/04/06 05:33:34;;;;;;;;;2.25;2.00;;;;;11.46;55.56;100464.28;5055444;28;45445;-73
2022/04/06 05:35:59;;;;;;;;;1.75;1.75;;;;;11.42;55.51;100461.66;5048557;28;45457;-72
2022/04/06 05:38:28;;;;;;;;;2.00;1.25;;;;;11.38;55.86;100481.78;5035581;28;45327;-73
2022/04/06 05:40:53;;;;;;;;;2.00;2.00;;;;;11.31;56.12;100466.09;5035777;28;45391;-74
2022/04/06 05:43:19;;;;;;;;;2.00;2.00;;;;;11.38;56.36;100484.41;5035844;28;45409;-72
2022/04/06 05:45:44;;;;;;;;;1.75;1.75;;;;;11.38;56.32;100478.28;5036202;28;45302;-73
2022/04/06 05:48:10;;;;;;;;;2.50;1.00;;;;;11.25;56.55;100454.75;5052718;28;45728;-72
2022/04/06 05:50:36;;;;;;;;;2.00;2.00;;;;;11.30;56.38;100469.59;5056204;28;45588;-73
2022/04/06 05:53:02;;;;;;;;;3.25;2.00;;;;;11.37;56.34;100481.81;5056179;28;45325;-73
2022/04/06 05:55:28;;;;;;;;;5.25;3.00;;;;;10.98;56.55;100416.44;5057596;28;45401;-74
2022/04/06 05:57:53;;;;;;;;;6.00;2.00;;;;;11.32;56.85;100473.97;5059026;28;45342;-73
2022/04/06 06:00:20;;;;;;;;;4.25;2.00;;;;;11.07;57.12;100433.03;5059178;28;45352;-73
2022/04/06 06:02:46;;;;;;;;;4.25;3.00;;;;;11.17;57.12;100459.16;5030749;27;45522;-73
2022/04/06 06:05:12;;;;;;;;;3.50;3.00;;;;;11.06;57.42;100446.97;5019108;28;45446;-73
2022/04/06 06:07:38;;;;;;;;;3.50;3.00;;;;;10.79;57.18;100402.56;5018963;28;46354;-73
2022/04/06 06:10:04;;;;;;;;;3.00;3.00;;;;;11.17;57.00;100460.91;5051012;28;45419;-72
2022/04/06 06:12:34;;;;;;;;;3.00;2.50;;;;;11.22;57.28;100477.50;5019311;28;45455;-74
2022/04/06 06:15:01;;;;;;;;;3.25;2.00;;;;;11.18;57.27;100465.31;5028150;28;45315;-73
2022/04/06 06:17:26;;;;;;;;;2.25;2.00;;;;;11.20;57.76;100474.00;5029048;28;46074;-73
2022/04/06 06:19:55;;;;;;;;;3.25;2.50;;;;;10.73;57.62;100391.25;5020132;28;45487;-73
2022/04/06 06:22:21;;;;;;;;;1.50;1.00;;;;;10.76;57.63;100389.47;5039592;28;45303;-72
2022/04/06 06:24:46;;;;;;;;;2.00;2.00;;;;;10.92;57.45;100408.63;5021056;28;45969;-73
2022/04/06 06:27:17;;;;;;;;;3.25;2.75;;;;;11.23;57.51;100466.16;5019364;28;45476;-73
2022/04/06 06:29:43;;;;;;;;;3.00;2.00;;;;;10.92;57.52;100410.38;5029470;28;45549;-73
2022/04/06 06:32:09;;;;;;;;;5.00;3.00;;;;;11.19;57.68;100457.41;5040410;28;45462;-73
2022/04/06 06:34:34;;;;;;;;;2.50;1.50;;;;;11.18;57.46;100450.44;5049611;28;45526;-73
2022/04/06 06:37:00;;;;;;;;;1.00;1.00;;;;;11.24;57.87;100465.25;5021772;28;46123;-73
2022/04/06 06:39:25;;;;;;;;;1.00;1.00;;;;;11.17;57.64;100447.81;5029422;28;45300;-73
2022/04/06 06:41:54;;;;;;;;;3.50;3.00;;;;;10.92;57.86;100397.28;5021677;28;45463;-73
2022/04/06 06:44:20;;;;;;;;;2.00;1.00;;;;;11.12;57.50;100431.25;5022594;28;45469;-73
2022/04/06 06:46:47;;;;;;;;;2.00;2.00;;;;;11.29;57.62;100457.38;5054339;28;47583;-73
2022/04/06 06:49:14;;;;;;;;;2.25;2.25;;;;;11.27;57.65;100444.28;5022554;28;45507;-72
2022/04/06 06:51:43;;;;;;;;;1.25;1.25;;;;;11.25;57.68;100444.28;5045377;28;45453;-72
2022/04/06 06:54:12;;;;;;;;;2.50;1.00;;;;;11.35;57.53;100460.81;5021829;28;45449;-73
2022/04/06 06:56:38;;;;;;;;;3.50;3.50;;;;;11.36;57.51;100457.31;5032918;28;46761;-72
2022/04/06 06:59:04;;;;;;;;;3.25;2.00;;;;;11.37;57.31;100459.06;5032498;28;45453;-73
2022/04/06 07:01:30;;;;;;;;;2.00;2.00;;;;;11.05;57.20;100406.81;5044226;28;45480;-73
2022/04/06 07:03:55;;;;;;;;;6.00;3.00;;;;;11.29;57.32;100445.13;5043710;28;45509;-73
2022/04/06 07:06:31;;;;;;;;;2.00;2.00;;;;;11.34;57.53;100451.22;5039800;28;45459;-72
2022/04/06 07:08:56;;;;;;;;;3.25;2.00;;;;;11.11;57.53;100408.53;5039289;28;45531;-73
2022/04/06 07:11:22;;;;;;;;;3.00;2.50;;;;;11.27;57.30;100432.91;5047305;28;45543;-73
2022/04/06 07:13:47;;;;;;;;;9.75;2.75;;;;;11.23;57.25;100424.19;5036191;28;45670;-73
2022/04/06 07:16:15;;;;;;;;;3.00;2.75;;;;;11.18;57.38;100412.88;5038140;28;46226;-74
2022/04/06 07:18:46;;;;;;;;;3.00;3.00;;;;;10.98;57.34;100369.28;5038839;28;45201;-73
2022/04/06 07:21:12;;;;;;;;;3.50;2.25;;;;;11.33;57.37;100433.75;5029587;28;45371;-73
2022/04/06 07:23:40;;;;;;;;;4.25;2.25;;;;;11.23;57.31;100427.69;5037946;28;45549;-73
2022/04/06 07:26:05;;;;;;;;;4.50;2.00;;;;;11.40;57.55;100439.81;5047020;28;46568;-71
2022/04/06 07:28:32;;;;;;;;;2.00;2.00;;;;;11.10;57.48;100377.94;5038163;28;45291;-74
2022/04/06 07:31:02;;;;;;;;;2.75;1.75;;;;;11.48;57.74;100418.78;5037392;28;45357;-74
2022/04/06 07:33:27;;;;;;;;;5.25;2.00;;;;;11.59;57.66;100430.09;5038825;28;45268;-73
2022/04/06 07:35:53;;;;;;;;;2.00;2.00;;;;;11.61;57.04;100430.94;5037487;28;45517;-73
2022/04/06 07:38:18;;;;;;;;;2.25;2.00;;;;;11.60;57.17;100424.84;5057903;28;45383;-74
2022/04/06 07:40:44;;;;;;;;;3.00;2.00;;;;;11.42;56.89;100376.00;5058442;28;45420;-74
2022/04/06 07:43:11;;;;;;;;;3.50;3.00;;;;;11.75;56.98;100433.47;5058831;28;45463;-74
2022/04/06 07:45:37;;;;;;;;;1.75;1.50;;;;;11.69;56.66;100416.00;5058100;28;45509;-74
2022/04/06 07:48:06;;;;;;;;;2.75;2.75;;;;;11.81;56.87;100426.41;5057741;28;45394;-74
2022/04/06 07:50:32;;;;;;;;;4.00;3.00;;;;;11.83;56.44;100434.28;5056503;28;45536;-74
2022/04/06 07:52:57;;;;;;;;;1.75;1.00;;;;;11.69;56.58;100402.88;5053136;28;45477;-72
2022/04/06 07:55:23;;;;;;;;;4.25;4.25;;;;;11.88;56.00;100433.38;5035845;28;46688;-74
2022/04/06 07:57:49;;;;;;;;;2.00;1.25;;;;;11.32;57.56;100324.50;5037994;28;45255;-73
2022/04/06 08:00:16;;;;;;;;;2.75;2.75;;;;;11.97;56.85;100421.94;5037524;28;45433;-74
2022/04/06 08:02:49;;;;;;;;;2.50;2.00;;;;;11.78;56.58;100370.47;5053843;28;45491;-73
2022/04/06 08:05:16;;;;;;;;;6.25;3.00;;;;;12.08;55.68;100409.59;5056068;28;45536;-76
2022/04/06 08:07:48;;;;;;;;;3.25;2.00;;;;;12.10;55.83;100404.31;5038005;28;45452;-77
2022/04/06 08:10:15;;;;;;;;;3.25;2.00;;;;;12.11;55.65;100402.59;5036071;28;45394;-73
2022/04/06 08:12:42;;;;;;;;;1.50;1.00;;;;;12.12;55.79;100399.91;5054564;28;45465;-73
2022/04/06 08:15:09;;;;;;;;;1.50;1.50;;;;;12.05;55.27;100383.38;5057536;28;46061;-73
2022/04/06 08:17:37;;;;;;;;;2.00;2.00;;;;;12.09;55.55;100389.47;5033311;28;45564;-72
2022/04/06 08:21:19;;;;;;;;;4.00;2.25;;;;;12.03;56.01;100369.41;5006944;27;45530;-71
2022/04/06 08:23:45;;;;;;;;;2.00;2.00;;;;;12.23;55.52;100387.56;4990338;27;45502;-71
2022/04/06 08:26:10;;;;;;;;;3.00;1.00;;;;;12.18;55.22;100370.13;4990941;27;45303;-72
2022/04/06 08:28:36;;;;;;;;;1.00;1.00;;;;;12.37;54.74;100394.44;4990597;27;45443;-73
2022/04/06 08:31:02;;;;;;;;;4.75;2.00;;;;;12.41;54.88;100391.75;4989900;28;45292;-72
2022/04/06 08:33:27;;;;;;;;;2.50;1.75;;;;;12.09;54.58;100331.72;4990167;27;45332;-73
2022/04/06 08:35:53;;;;;;;;;3.75;2.25;;;;;12.24;55.04;100363.06;4990146;28;45325;-74
2022/04/06 08:38:19;;;;;;;;;3.75;1.75;;;;;12.45;54.27;100387.34;4987462;28;45522;-72
2022/04/06 08:40:45;;;;;;;;;5.00;1.25;;;;;12.44;54.79;100388.22;5005557;27;45811;-73
2022/04/06 08:43:11;;;;;;;;;3.00;1.75;;;;;12.27;54.26;100351.66;5010186;27;45471;-74
2022/04/06 08:45:38;;;;;;;;;3.00;1.00;;;;;12.48;54.32;100388.19;5008695;27;45321;-74
2022/04/06 08:48:07;;;;;;;;;3.00;2.25;;;;;12.42;54.47;100379.50;5009738;27;45675;-74
2022/04/06 08:50:38;;;;;;;;;3.50;1.25;;;;;12.24;54.92;100343.78;5009762;27;46163;-74
2022/04/06 08:53:05;;;;;;;;;1.00;1.00;;;;;12.46;54.29;100378.59;5009605;27;45495;-72
2022/04/06 08:55:32;;;;;;;;;3.00;1.00;;;;;12.52;54.71;100383.75;4996811;28;45455;-71
2022/04/06 08:58:04;;;;;;;;;2.00;2.00;;;;;12.60;54.43;100386.28;4990260;27;45597;-73
2022/04/06 09:00:31;;;;;;;;;7.50;7.25;;;;;12.59;54.20;100371.41;4989594;28;45481;-72
2022/04/06 09:02:57;;;;;;;;;53.00;42.00;;;;;12.58;54.09;100375.81;4988550;28;45384;-74
2022/04/06 09:05:26;;;;;;;;;25.25;21.25;;;;;12.60;54.50;100378.38;4989838;28;45453;-72
2022/04/06 09:07:52;;;;;;;;;9.50;9.00;;;;;12.33;54.18;100327.06;4996500;27;45540;-74
2022/04/06 09:10:33;;;;;;;;;7.75;6.50;;;;;12.63;54.61;100378.38;4989768;27;46195;-73
2022/04/06 09:13:10;;;;;;;;;5.75;4.00;;;;;12.58;54.49;100360.03;4988451;27;45455;-74
2022/04/06 09:15:36;;;;;;;;;4.00;2.75;;;;;12.66;54.27;100371.31;4990210;28;45449;-74
2022/04/06 09:18:02;;;;;;;;;3.25;3.25;;;;;12.69;54.47;100375.66;4990073;28;45428;-73
2022/04/06 09:20:29;;;;;;;;;2.25;2.25;;;;;12.69;54.42;100373.03;5002784;27;46188;-74
2022/04/06 09:22:55;;;;;;;;;4.75;4.00;;;;;12.69;54.46;100370.41;5009553;27;45551;-72
2022/04/06 09:25:21;;;;;;;;;3.75;2.00;;;;;12.71;54.50;100369.50;5009746;27;45502;-74
2022/04/06 09:27:47;;;;;;;;;36.00;29.50;;;;;12.73;54.28;100369.47;5010434;27;45579;-74
2022/04/06 09:30:13;;;;;;;;;28.25;16.50;;;;;12.76;54.37;100368.56;4991367;28;47560;-72
2022/04/06 09:32:42;;;;;;;;;9.25;9.25;;;;;12.71;54.05;100358.13;4978616;28;45490;-72
2022/04/06 09:35:28;;;;;;;;;5.25;4.25;;;;;12.82;54.08;100365.88;4996676;27;45394;-72
2022/04/06 09:38:09;;;;;;;;;7.00;3.75;;;;;12.62;53.86;100318.81;4997280;27;45401;-74
2022/04/06 09:40:34;;;;;;;;;3.75;2.75;;;;;12.83;53.47;100363.22;4994373;27;47695;-73
2022/04/06 09:43:00;;;;;;;;;3.50;2.00;;;;;12.73;53.48;100338.81;4995885;27;45321;-73
2022/04/06 09:48:13;;;;;;;;;5.00;3.75;;;;;12.85;53.63;100360.56;4984103;28;45492;-73
2022/04/06 09:50:39;;;;;;;;;3.75;3.00;;;;;12.57;53.03;100324.13;4995947;27;45504;-72
2022/04/06 09:53:06;;;;;;;;;3.25;3.00;;;;;12.86;53.29;100368.44;4996441;27;45378;-73
2022/04/06 09:55:32;;;;;;;;;4.75;3.00;;;;;12.69;53.66;100341.50;4997389;27;45343;-72
2022/04/06 09:57:59;;;;;;;;;4.50;2.00;;;;;12.60;54.13;100325.84;4996504;27;45382;-72
2022/04/06 10:00:30;;;;;;;;;2.00;2.00;;;;;12.83;53.65;100365.84;4995628;27;45334;-72
2022/04/06 10:03:05;;;;;;;;;1.75;1.00;;;;;12.77;53.58;100358.06;5000008;27;45235;-73
2022/04/06 10:05:37;;;;;;;;;3.25;3.25;;;;;12.88;53.62;100373.66;4997034;27;45246;-73
2022/04/06 10:08:04;;;;;;;;;3.75;2.00;;;;;12.92;53.97;100365.72;4996198;27;45358;-73
2022/04/06 10:10:36;;;;;;;;;2.50;2.00;;;;;12.74;55.49;100337.03;4990034;27;46404;-74
2022/04/06 10:13:04;;;;;;;;;1.50;1.50;;;;;13.05;55.73;100369.06;5015757;27;45395;-74
2022/04/06 10:15:30;;;;;;;;;2.25;2.25;;;;;13.10;53.81;100356.72;4997486;27;45421;-74
2022/04/06 10:17:56;;;;;;;;;2.00;2.00;;;;;13.15;53.08;100359.28;5015745;27;45413;-73
2022/04/06 10:20:50;;;;;;;;;4.75;3.00;;;;;13.15;53.71;100341.75;4996656;28;45432;-71
2022/04/06 10:23:40;;;;;;;;;4.00;2.00;;;;;13.19;53.17;100339.06;4995892;28;45273;-73
2022/04/06 10:26:13;;;;;;;;;2.50;2.25;;;;;13.21;52.99;100327.63;4978002;27;45552;-73
2022/04/06 10:28:44;;;;;;;;;3.75;2.75;;;;;13.27;52.81;100337.19;4976259;28;45510;-74
2022/04/06 10:31:22;;;;;;;;;5.25;3.00;;;;;13.34;52.74;100331.84;4958347;28;46480;-74
2022/04/06 10:33:50;;;;;;;;;3.00;3.00;;;;;13.42;52.69;100334.34;4976551;28;45286;-77
2022/04/06 10:36:30;;;;;;;;;4.33;2.00;;;;;13.37;52.90;100304.63;4976369;28;45401;-74
2022/04/06 10:39:04;;;;;;;;;2.50;2.50;;;;;13.60;52.48;100324.44;4958791;28;45442;-71
2022/04/06 10:41:31;;;;;;;;;3.25;3.25;;;;;13.52;52.71;100300.84;4969074;27;48010;-74
2022/04/06 10:44:09;;;;;;;;;3.75;3.00;;;;;13.47;51.94;100290.41;5013688;27;45278;-75
2022/04/06 10:46:38;;;;;;;;;5.00;3.25;;;;;13.62;52.19;100317.34;5003152;27;45311;-72
2022/04/06 10:49:06;;;;;;;;;5.25;4.00;;;;;13.57;51.68;100315.69;4995647;27;45506;-75
2022/04/06 10:51:40;;;;;;;;;2.00;2.00;;;;;13.56;51.88;100320.97;4995267;27;45468;-76
2022/04/06 10:54:12;;;;;;;;;4.75;3.25;;;;;13.58;51.81;100312.16;4977507;28;45441;-75
2022/04/06 10:56:55;;;;;;;;;4.00;2.50;;;;;13.58;52.47;100292.88;4996124;27;45544;-76
2022/04/06 10:59:28;;;;;;;;;3.25;3.00;;;;;13.63;52.38;100295.41;4978078;28;45620;-74
2022/04/06 11:02:20;;;;;;;;;5.25;3.00;;;;;13.60;52.14;100283.19;4995366;28;45459;-73
2022/04/06 11:04:47;;;;;;;;;5.75;4.00;;;;;13.38;52.64;100243.22;4995090;27;45485;-76
2022/04/06 11:07:16;;;;;;;;;8.00;4.00;;;;;13.58;52.47;100274.44;4995880;27;45453;-74
2022/04/06 11:12:55;;;;;;;;;4.25;3.75;;;;;13.58;52.41;100275.31;4995511;27;45583;-74
2022/04/06 11:15:20;;;;;;;;;5.00;4.00;;;;;13.61;52.65;100268.25;5012258;27;46250;-75
2022/04/06 11:17:48;;;;;;;;;5.25;5.25;;;;;13.02;52.64;100179.81;5014860;27;45510;-74
2022/04/06 11:20:13;;;;;;;;;6.50;4.50;;;;;13.54;53.14;100257.81;5015017;27;45313;-73
2022/04/06 11:22:43;;;;;;;;;5.00;2.00;;;;;13.44;52.90;100237.00;5015832;27;45910;-74
2022/04/06 11:25:14;;;;;;;;;2.50;2.50;;;;;13.55;53.08;100258.72;5014611;27;45534;-74
2022/04/06 11:27:42;;;;;;;;;4.50;3.75;;;;;13.52;52.93;100248.22;4987074;27;45540;-74
2022/04/06 11:30:13;;;;;;;;;6.50;3.00;;;;;13.49;53.54;100249.16;4990660;27;45546;-74
2022/04/06 11:32:43;;;;;;;;;4.75;2.75;;;;;13.05;53.20;100169.25;4975270;28;46555;-76
2022/04/06 11:35:12;;;;;;;;;5.50;3.00;;;;;13.57;53.66;100241.13;4997953;27;45402;-75